createdAt,value
2018-11-11T00:00:58.541Z,100521.54
2018-11-11T00:04:04.114Z,100523.56
2018-11-11T00:07:09.524Z,100527.20
2018-11-11T00:10:14.894Z,100532.89
2018-11-11T00:13:20.814Z,100529.84
2018-11-11T00:16:26.157Z,100529.17
2018-11-11T00:19:31.522Z,100532.44
2018-11-11T00:22:36.974Z,100538.41
2018-11-11T00:25:42.379Z,100543.35
2018-11-11T00:28:47.778Z,100545.78
2018-11-11T00:31:53.311Z,100543.62
2018-11-11T00:34:58.741Z,100545.20
2018-11-11T00:38:04.090Z,100548.56
2018-11-11T00:41:09.462Z,100545.94
2018-11-11T00:44:14.877Z,100544.07
2018-11-11T00:47:20.231Z,100548.41
2018-11-11T00:50:25.606Z,100554.09
2018-11-11T00:53:30.978Z,100555.31
2018-11-11T00:56:36.354Z,100555.73
2018-11-11T00:59:41.727Z,100560.01
2018-11-11T01:02:47.561Z,100552.92
2018-11-11T01:05:53.038Z,100547.95
2018-11-11T01:08:58.478Z,100554.73
2018-11-11T01:12:03.932Z,100543.58
2018-11-11T01:15:11.066Z,100548.11
2018-11-11T01:18:16.465Z,100552.41
2018-11-11T01:21:21.871Z,100541.62
2018-11-11T01:24:27.685Z,100553.44
2018-11-11T01:27:33.155Z,100557.60
2018-11-11T01:30:38.546Z,100548.67
2018-11-11T01:33:43.982Z,100541.15
2018-11-11T01:36:49.391Z,100546.11
2018-11-11T01:39:54.762Z,100554.32
2018-11-11T01:43:00.151Z,100547.41
2018-11-11T01:46:05.754Z,100546.47
2018-11-11T01:49:11.132Z,100544.67
2018-11-11T01:52:16.531Z,100545.27
2018-11-11T01:55:21.919Z,100543.45
2018-11-11T01:58:27.334Z,100544.90
2018-11-11T02:01:32.742Z,100541.53
2018-11-11T02:04:38.173Z,100529.31
2018-11-11T02:07:44.634Z,100525.98
2018-11-11T02:10:50.218Z,100535.14
2018-11-11T02:13:55.660Z,100535.25
2018-11-11T02:17:01.060Z,100529.35
2018-11-11T02:20:09.762Z,100539.56
2018-11-11T02:23:15.146Z,100543.80
2018-11-11T02:26:20.511Z,100543.36
2018-11-11T02:29:25.896Z,100540.86
2018-11-11T02:32:31.314Z,100532.28
2018-11-11T02:35:36.746Z,100533.98
2018-11-11T02:38:42.130Z,100532.66
2018-11-11T02:41:47.507Z,100540.22
2018-11-11T02:44:53.038Z,100546.19
2018-11-11T02:47:58.450Z,100545.35
2018-11-11T02:51:03.826Z,100546.06
2018-11-11T02:54:09.258Z,100550.70
2018-11-11T02:57:14.853Z,100546.71
2018-11-11T03:00:21.550Z,100545.73
2018-11-11T03:03:27.262Z,100542.37
2018-11-11T03:06:32.630Z,100536.98
2018-11-11T03:09:38.023Z,100533.33
2018-11-11T03:12:43.857Z,100540.95
2018-11-11T03:15:49.346Z,100533.20
2018-11-11T03:18:54.747Z,100535.02
2018-11-11T03:22:00.115Z,100537.52
2018-11-11T03:25:06.827Z,100539.94
2018-11-11T03:28:12.207Z,100538.88
2018-11-11T03:31:17.606Z,100529.60
2018-11-11T03:34:23.062Z,100533.18
2018-11-11T03:37:28.441Z,100532.61
2018-11-11T03:40:34.138Z,100532.61
2018-11-11T03:43:39.970Z,100540.36
2018-11-11T03:46:45.347Z,100531.42
2018-11-11T03:49:50.774Z,100539.99
2018-11-11T03:52:56.146Z,100552.22
2018-11-11T03:56:01.635Z,100548.34
2018-11-11T03:59:07.595Z,100541.61
2018-11-11T04:02:12.983Z,100548.09
2018-11-11T04:05:18.752Z,100551.86
2018-11-11T04:08:24.117Z,100550.78
2018-11-11T04:11:29.507Z,100555.19
2018-11-11T04:14:34.922Z,100553.89
2018-11-11T04:17:40.391Z,100547.23
2018-11-11T04:20:45.777Z,100551.25
2018-11-11T04:23:51.240Z,100546.28
2018-11-11T04:26:56.635Z,100553.81
2018-11-11T04:30:02.023Z,100547.62
2018-11-11T04:33:07.391Z,100539.45
2018-11-11T04:36:12.787Z,100542.06
2018-11-11T04:39:18.261Z,100537.69
2018-11-11T04:42:23.762Z,100540.39
2018-11-11T04:45:29.562Z,100531.89
2018-11-11T04:48:34.927Z,100544.38
2018-11-11T04:51:40.318Z,100538.15
2018-11-11T04:54:45.775Z,100538.87
2018-11-11T04:57:51.127Z,100538.80
2018-11-11T05:00:56.563Z,100541.59
2018-11-11T05:04:01.988Z,100550.67
2018-11-11T05:07:08.098Z,100548.39
2018-11-11T05:10:13.926Z,100545.31
2018-11-11T05:13:19.830Z,100541.98
2018-11-11T05:16:25.230Z,100539.13
2018-11-11T05:19:30.614Z,100546.22
2018-11-11T05:22:36.032Z,100553.59
2018-11-11T05:25:41.483Z,100560.52
2018-11-11T05:28:46.845Z,100556.83
2018-11-11T05:31:52.230Z,100556.61
2018-11-11T05:34:57.706Z,100556.32
2018-11-11T05:38:03.067Z,100551.91
2018-11-11T05:41:08.474Z,100552.92
2018-11-11T05:44:13.931Z,100550.49
2018-11-11T05:47:19.309Z,100557.11
2018-11-11T05:50:24.698Z,100564.67
2018-11-11T05:53:30.106Z,100557.19
2018-11-11T05:56:35.490Z,100563.63
2018-11-11T05:59:40.854Z,100567.83
2018-11-11T06:02:46.652Z,100572.97
2018-11-11T06:05:52.090Z,100568.77
2018-11-11T06:08:57.478Z,100569.20
2018-11-11T06:12:02.874Z,100573.08
2018-11-11T06:15:10.371Z,100573.37
2018-11-11T06:18:15.766Z,100578.08
2018-11-11T06:21:21.160Z,100578.08
2018-11-11T06:24:26.586Z,100581.47
2018-11-11T06:27:32.135Z,100581.66
2018-11-11T06:30:37.703Z,100585.09
2018-11-11T06:33:43.159Z,100584.91
2018-11-11T06:36:48.530Z,100582.53
2018-11-11T06:39:53.869Z,100584.84
2018-11-11T06:42:59.231Z,100588.53
2018-11-11T06:46:04.653Z,100596.82
2018-11-11T06:49:10.014Z,100594.44
2018-11-11T06:52:15.382Z,100582.34
2018-11-11T06:55:20.770Z,100588.83
2018-11-11T06:58:26.150Z,100581.95
2018-11-11T07:01:31.782Z,100584.95
2018-11-11T07:04:37.239Z,100578.83
2018-11-11T07:07:42.741Z,100578.77
2018-11-11T07:10:48.279Z,100584.98
2018-11-11T07:13:53.723Z,100584.02
2018-11-11T07:16:59.278Z,100590.92
2018-11-11T07:20:05.042Z,100608.56
2018-11-11T07:23:10.430Z,100592.81
2018-11-11T07:26:15.850Z,100597.27
2018-11-11T07:29:21.225Z,100607.73
2018-11-11T07:32:26.678Z,100601.86
2018-11-11T07:35:32.145Z,100602.00
2018-11-11T07:38:37.588Z,100602.59
2018-11-11T07:41:43.042Z,100609.79
2018-11-11T07:44:48.514Z,100605.70
2018-11-11T07:47:53.939Z,100604.39
2018-11-11T07:50:59.817Z,100607.55
2018-11-11T07:54:05.719Z,100614.06
2018-11-11T07:57:11.115Z,100613.37
2018-11-11T08:00:16.497Z,100622.07
2018-11-11T08:03:22.006Z,100623.41
2018-11-11T08:06:27.442Z,100615.33
2018-11-11T08:09:32.818Z,100625.83
2018-11-11T08:12:38.190Z,100624.50
2018-11-11T08:15:43.602Z,100628.22
2018-11-11T08:18:49.014Z,100627.71
2018-11-11T08:21:54.411Z,100634.92
2018-11-11T08:24:59.827Z,100644.45
2018-11-11T08:28:05.252Z,100645.24
2018-11-11T08:31:10.642Z,100640.14
2018-11-11T08:34:16.150Z,100642.27
2018-11-11T08:37:21.562Z,100647.96
2018-11-11T08:40:26.955Z,100642.31
2018-11-11T08:43:32.662Z,100652.23
2018-11-11T08:46:38.975Z,100647.81
2018-11-11T08:49:44.358Z,100647.81
2018-11-11T08:52:49.889Z,100647.92
2018-11-11T08:55:55.375Z,100655.82
2018-11-11T08:59:01.214Z,100650.02
2018-11-11T09:02:06.946Z,100656.00
2018-11-11T09:05:12.430Z,100658.06
2018-11-11T09:08:18.160Z,100659.47
2018-11-11T09:11:23.565Z,100653.06
2018-11-11T09:14:29.163Z,100659.65
2018-11-11T09:17:34.611Z,100656.22
2018-11-11T09:20:40.195Z,100667.37
2018-11-11T09:23:45.662Z,100670.48
2018-11-11T09:26:51.220Z,100669.55
2018-11-11T09:29:56.599Z,100669.84
2018-11-11T09:33:01.963Z,100659.41
2018-11-11T09:36:08.290Z,100667.78
2018-11-11T09:39:13.811Z,100668.20
2018-11-11T09:42:19.317Z,100657.16
2018-11-11T09:45:24.973Z,100667.11
2018-11-11T09:48:30.311Z,100669.75
2018-11-11T09:51:35.674Z,100664.03
2018-11-11T09:54:41.119Z,100674.15
2018-11-11T09:57:46.525Z,100670.96
2018-11-11T10:00:52.035Z,100668.96
2018-11-11T10:04:01.528Z,100667.03
2018-11-11T10:07:13.536Z,100665.16
2018-11-11T10:10:57.018Z,100673.29
2018-11-11T10:15:09.922Z,100666.75
2018-11-11T10:18:52.721Z,100679.61
2018-11-11T10:22:04.977Z,100681.77
2018-11-11T10:25:15.759Z,100674.78
2018-11-11T10:30:27.671Z,100681.48
2018-11-11T10:33:37.111Z,100689.62
2018-11-11T10:36:48.034Z,100688.20
2018-11-11T10:39:57.369Z,100691.17
2018-11-11T10:44:10.707Z,100689.13
2018-11-11T10:47:23.246Z,100688.14
2018-11-11T10:50:35.082Z,100685.91
2018-11-11T10:53:40.518Z,100688.42
2018-11-11T10:56:45.880Z,100696.36
2018-11-11T10:59:51.218Z,100697.11
2018-11-11T11:02:57.899Z,100689.00
2018-11-11T11:06:03.926Z,100699.84
2018-11-11T11:09:13.557Z,100695.38
2018-11-11T11:12:19.262Z,100708.66
2018-11-11T11:15:24.686Z,100700.08
2018-11-11T11:18:30.066Z,100695.75
2018-11-11T11:21:35.450Z,100703.41
2018-11-11T11:24:40.836Z,100696.62
2018-11-11T11:27:46.236Z,100695.77
2018-11-11T11:30:51.603Z,100697.09
2018-11-11T11:33:57.103Z,100692.22
2018-11-11T11:37:02.492Z,100691.83
2018-11-11T11:40:09.532Z,100685.48
2018-11-11T11:43:14.982Z,100687.06
2018-11-11T11:46:20.346Z,100689.89
2018-11-11T11:49:27.857Z,100690.05
2018-11-11T11:52:34.153Z,100683.61
2018-11-11T11:55:40.006Z,100678.11
2018-11-11T11:58:45.432Z,100685.45
2018-11-11T12:01:51.141Z,100680.94
2018-11-11T12:04:56.664Z,100684.49
2018-11-11T12:08:02.069Z,100685.21
2018-11-11T12:11:07.619Z,100679.02
2018-11-11T12:14:13.078Z,100679.56
2018-11-11T12:17:19.100Z,100674.14
2018-11-11T12:20:24.674Z,100684.05
2018-11-11T12:23:30.117Z,100683.54
2018-11-11T12:26:35.501Z,100688.53
2018-11-11T12:29:40.894Z,100686.21
2018-11-11T12:32:46.310Z,100682.76
2018-11-11T12:35:52.363Z,100695.02
2018-11-11T12:38:57.866Z,100701.17
2018-11-11T12:42:03.528Z,100721.03
2018-11-11T12:45:09.786Z,100716.92
2018-11-11T12:48:15.166Z,100715.92
2018-11-11T12:51:20.533Z,100714.73
2018-11-11T12:54:26.091Z,100712.78
2018-11-11T12:57:32.073Z,100719.26
2018-11-11T13:00:53.119Z,100720.57
2018-11-11T13:03:58.802Z,100725.31
2018-11-11T13:07:04.162Z,100728.72
2018-11-11T13:10:12.703Z,100735.37
2018-11-11T13:13:18.299Z,100741.27
2018-11-11T13:16:23.654Z,100741.54
2018-11-11T13:19:29.049Z,100732.35
2018-11-11T13:22:34.515Z,100728.68
2018-11-11T13:25:40.949Z,100725.97
2018-11-11T13:28:46.357Z,100727.37
2018-11-11T13:31:51.787Z,100724.89
2018-11-11T13:34:57.451Z,100734.94
2018-11-11T13:38:02.976Z,100742.06
2018-11-11T13:41:08.838Z,100748.14
2018-11-11T13:44:14.310Z,100745.53
2018-11-11T13:47:19.687Z,100747.17
2018-11-11T13:50:25.813Z,100747.73
2018-11-11T13:53:31.275Z,100743.70
2018-11-11T13:56:36.868Z,100755.49
2018-11-11T13:59:42.509Z,100756.80
2018-11-11T14:02:48.407Z,100761.87
2018-11-11T14:05:53.902Z,100768.98
2018-11-11T14:08:59.294Z,100768.72
2018-11-11T14:12:04.690Z,100768.86
2018-11-11T14:15:18.430Z,100769.70
2018-11-11T14:18:23.924Z,100769.97
2018-11-11T14:21:29.434Z,100770.92
2018-11-11T14:24:34.928Z,100769.84
2018-11-11T14:27:40.500Z,100777.16
2018-11-11T14:30:46.482Z,100784.49
2018-11-11T14:33:52.021Z,100782.75
2018-11-11T14:36:57.399Z,100790.25
2018-11-11T14:40:02.912Z,100798.85
2018-11-11T14:43:08.293Z,100801.38
2018-11-11T14:46:14.218Z,100799.12
2018-11-11T14:49:19.746Z,100799.52
2018-11-11T14:52:25.304Z,100793.89
2018-11-11T14:55:31.426Z,100793.95
2018-11-11T14:58:36.914Z,100808.50
2018-11-11T15:01:42.545Z,100798.43
2018-11-11T15:04:48.215Z,100785.27
2018-11-11T15:07:53.645Z,100780.52
2018-11-11T15:10:59.218Z,100784.63
2018-11-11T15:14:05.570Z,100803.02
2018-11-11T15:17:10.985Z,100794.52
2018-11-11T15:20:17.319Z,100781.73
2018-11-11T15:23:22.786Z,100799.76
2018-11-11T15:26:28.415Z,100795.25
2018-11-11T15:29:33.822Z,100794.59
2018-11-11T15:32:39.255Z,100794.48
2018-11-11T15:35:45.034Z,100804.93
2018-11-11T15:38:52.627Z,100803.56
2018-11-11T15:41:58.055Z,100818.36
2018-11-11T15:45:03.590Z,100818.02
2018-11-11T15:48:09.690Z,100810.24
2018-11-11T15:51:15.078Z,100815.02
2018-11-11T15:54:20.564Z,100808.70
2018-11-11T15:57:25.969Z,100819.64
2018-11-11T16:00:33.582Z,100812.38
2018-11-11T16:03:39.265Z,100820.04
2018-11-11T16:06:44.642Z,100812.92
2018-11-11T16:09:50.030Z,100818.36
2018-11-11T16:12:55.426Z,100831.45
2018-11-11T16:16:00.914Z,100817.10
2018-11-11T16:19:06.388Z,100825.47
2018-11-11T16:22:12.149Z,100848.25
2018-11-11T16:25:17.727Z,100860.20
2018-11-11T16:28:23.263Z,100852.65
2018-11-11T16:31:29.523Z,100856.86
2018-11-11T16:34:35.178Z,100850.72
2018-11-11T16:37:40.674Z,100852.48
2018-11-11T16:40:46.234Z,100845.24
2018-11-11T16:43:51.943Z,100847.09
2018-11-11T16:46:57.722Z,100865.78
2018-11-11T16:50:03.795Z,100860.92
2018-11-11T16:53:10.599Z,100869.15
2018-11-11T16:56:28.035Z,100868.44
2018-11-11T16:59:33.442Z,100875.00
2018-11-11T17:02:38.801Z,100877.17
2018-11-11T17:05:44.246Z,100890.98
2018-11-11T17:08:49.602Z,100900.50
2018-11-11T17:11:54.965Z,100889.91
2018-11-11T17:15:00.423Z,100909.94
2018-11-11T17:18:06.235Z,100912.00
2018-11-11T17:21:11.603Z,100930.46
2018-11-11T17:24:17.292Z,100937.72
2018-11-11T17:27:22.674Z,100936.27
2018-11-11T17:30:30.478Z,100941.09
2018-11-11T17:33:36.149Z,100932.48
2018-11-11T17:36:41.536Z,100931.05
2018-11-11T17:39:46.924Z,100932.13
2018-11-11T17:42:53.116Z,100922.23
2018-11-11T17:45:58.603Z,100918.13
2018-11-11T17:49:04.005Z,100926.30
2018-11-11T17:52:09.590Z,100921.56
2018-11-11T17:55:16.334Z,100924.78
2018-11-11T17:58:21.902Z,100920.99
2018-11-11T18:01:27.278Z,100926.86
2018-11-11T18:04:32.842Z,100927.52
2018-11-11T18:07:38.238Z,100918.95
2018-11-11T18:10:43.616Z,100940.54
2018-11-11T18:13:49.328Z,100936.94
2018-11-11T18:16:54.899Z,100935.63
2018-11-11T18:20:00.452Z,100942.52
2018-11-11T18:23:06.193Z,100933.31
2018-11-11T18:26:11.552Z,100940.73
2018-11-11T18:29:16.969Z,100936.16
2018-11-11T18:32:22.502Z,100931.77
2018-11-11T18:35:28.052Z,100931.76
2018-11-11T18:38:33.647Z,100925.53
2018-11-11T18:41:39.054Z,100936.38
2018-11-11T18:44:46.173Z,100940.84
2018-11-11T18:47:53.961Z,100938.51
2018-11-11T18:50:59.506Z,100953.06
2018-11-11T18:54:04.995Z,100954.49
2018-11-11T18:57:10.475Z,100938.70
2018-11-11T19:00:19.487Z,100946.36
2018-11-11T19:03:24.995Z,100943.92
2018-11-11T19:06:30.409Z,100934.81
2018-11-11T19:09:35.753Z,100938.81
2018-11-11T19:12:42.119Z,100952.86
2018-11-11T19:15:47.765Z,100949.65
2018-11-11T19:18:53.273Z,100968.48
2018-11-11T19:21:59.232Z,100977.07
2018-11-11T19:25:05.339Z,100982.13
2018-11-11T19:28:10.930Z,100989.58
2018-11-11T19:31:16.453Z,100976.30
2018-11-11T19:34:22.195Z,100983.90
2018-11-11T19:37:27.678Z,100971.05
2018-11-11T19:40:33.032Z,100976.80
2018-11-11T19:43:38.502Z,100981.59
2018-11-11T19:46:43.846Z,101000.98
2018-11-11T19:49:49.238Z,100998.38
2018-11-11T19:52:55.638Z,101002.03
2018-11-11T19:56:01.077Z,101005.98
2018-11-11T19:59:06.470Z,101017.02
2018-11-11T20:02:11.831Z,101018.89
2018-11-11T20:05:17.710Z,101017.45
2018-11-11T20:08:23.053Z,101017.47
2018-11-11T20:11:28.419Z,101023.41
2018-11-11T20:14:34.089Z,101024.62
2018-11-11T20:17:39.559Z,101048.72
2018-11-11T20:20:45.057Z,101045.47
2018-11-11T20:23:50.544Z,101041.88
2018-11-11T20:26:56.074Z,101042.94
2018-11-11T20:30:01.433Z,101033.83
2018-11-11T20:33:07.607Z,101004.31
2018-11-11T20:36:12.935Z,101003.37
2018-11-11T20:39:18.289Z,101021.23
2018-11-11T20:42:23.705Z,101030.52
2018-11-11T20:45:30.648Z,101025.77
2018-11-11T20:48:36.001Z,101035.60
2018-11-11T20:51:41.331Z,101036.90
2018-11-11T20:54:46.755Z,101042.95
2018-11-11T20:57:52.299Z,101054.16
2018-11-11T21:00:57.755Z,101060.08
2018-11-11T21:04:03.190Z,101066.50
2018-11-11T21:07:08.514Z,101062.90
2018-11-11T21:10:17.159Z,101064.98
2018-11-11T21:13:22.716Z,101051.70
2018-11-11T21:16:28.042Z,101059.36
2018-11-11T21:19:33.762Z,101061.68
2018-11-11T21:22:39.362Z,101057.00
2018-11-11T21:25:56.590Z,101076.18
2018-11-11T21:29:01.942Z,101087.30
2018-11-11T21:32:08.301Z,101092.83
2018-11-11T21:35:13.874Z,101110.08
2018-11-11T21:38:19.257Z,101103.38
2018-11-11T21:41:24.770Z,101102.48
2018-11-11T21:44:30.220Z,101071.81
2018-11-11T21:47:35.769Z,101063.96
2018-11-11T21:50:41.125Z,101056.86
2018-11-11T21:53:46.560Z,101065.36
2018-11-11T21:56:51.894Z,101069.64
2018-11-11T21:59:57.257Z,101058.00
2018-11-11T22:03:02.693Z,101077.46
2018-11-11T22:06:08.214Z,101085.69
2018-11-11T22:09:13.734Z,101088.20
2018-11-11T22:12:19.254Z,101101.23
2018-11-11T22:15:24.710Z,101104.99
2018-11-11T22:18:30.122Z,101102.48
2018-11-11T22:21:35.478Z,101102.54
2018-11-11T22:24:40.942Z,101121.87
2018-11-11T22:27:46.329Z,101106.39
2018-11-11T22:30:51.887Z,101110.08
2018-11-11T22:33:57.292Z,101129.48
2018-11-11T22:37:02.659Z,101119.64
2018-11-11T22:40:11.271Z,101115.58
2018-11-11T22:43:16.687Z,101111.42
2018-11-11T22:46:22.061Z,101122.15
2018-11-11T22:49:27.425Z,101123.30
2018-11-11T22:52:32.838Z,101127.05
2018-11-11T22:55:38.410Z,101137.33
2018-11-11T22:58:43.804Z,101142.17
2018-11-11T23:01:51.673Z,101147.91
2018-11-11T23:04:57.321Z,101157.91
2018-11-11T23:08:02.658Z,101164.64
2018-11-11T23:11:08.046Z,101162.19
2018-11-11T23:14:13.434Z,101160.36
2018-11-11T23:17:18.789Z,101170.02
2018-11-11T23:20:24.150Z,101171.21
2018-11-11T23:23:29.563Z,101165.73
2018-11-11T23:26:34.999Z,101169.32
2018-11-11T23:29:40.330Z,101177.60
2018-11-11T23:32:46.058Z,101175.46
2018-11-11T23:35:51.477Z,101179.89
2018-11-11T23:38:56.807Z,101187.48
2018-11-11T23:42:02.171Z,101182.44
2018-11-11T23:45:08.974Z,101185.89
2018-11-11T23:48:14.314Z,101190.73
2018-11-11T23:51:19.918Z,101184.56
2018-11-11T23:54:25.290Z,101185.77
2018-11-11T23:57:30.647Z,101193.85
